createdAt,value
2019-03-21T00:00:38.374Z,4.10
2019-03-21T00:03:11.927Z,4.10
2019-03-21T00:05:46.294Z,4.10
2019-03-21T00:08:20.703Z,4.10
2019-03-21T00:11:21.768Z,4.10
2019-03-21T00:14:06.430Z,4.10
2019-03-21T00:16:30.100Z,4.10
2019-03-21T00:19:03.818Z,4.10
2019-03-21T00:21:37.378Z,4.10
2019-03-21T00:24:11.324Z,4.00
2019-03-21T00:26:44.930Z,3.90
2019-03-21T00:29:18.526Z,3.80
2019-03-21T00:31:52.213Z,3.80
2019-03-21T00:34:26.610Z,3.80
2019-03-21T00:37:00.188Z,3.80
2019-03-21T00:39:33.763Z,3.80
2019-03-21T00:42:08.323Z,3.80
2019-03-21T00:44:42.632Z,3.80
2019-03-21T00:47:17.103Z,3.80
2019-03-21T00:49:50.661Z,3.80
2019-03-21T00:52:25.033Z,3.70
2019-03-21T00:54:58.617Z,3.70
2019-03-21T00:57:32.292Z,3.70
2019-03-21T01:00:10.129Z,3.60
2019-03-21T01:02:43.739Z,3.60
2019-03-21T01:05:17.519Z,3.60
2019-03-21T01:07:51.099Z,3.60
2019-03-21T01:10:24.800Z,3.40
2019-03-21T01:12:58.393Z,3.40
2019-03-21T01:15:31.975Z,3.40
2019-03-21T01:18:05.805Z,3.40
2019-03-21T01:20:39.565Z,3.40
2019-03-21T01:23:13.132Z,3.30
2019-03-21T01:25:46.941Z,3.30
2019-03-21T01:28:20.760Z,3.30
2019-03-21T01:30:54.346Z,3.30
2019-03-21T01:33:27.963Z,3.30
2019-03-21T01:36:01.600Z,3.40
2019-03-21T01:38:35.595Z,3.40
2019-03-21T01:41:10.050Z,3.30
2019-03-21T01:43:43.687Z,3.20
2019-03-21T01:46:18.945Z,3.20
2019-03-21T01:48:52.519Z,3.10
2019-03-21T01:51:26.079Z,3.20
2019-03-21T01:53:59.899Z,3.20
2019-03-21T01:56:34.237Z,3.10
2019-03-21T01:59:08.238Z,3.10
2019-03-21T02:01:41.840Z,3.00
2019-03-21T02:04:15.703Z,2.90
2019-03-21T02:06:49.307Z,3.00
2019-03-21T02:09:23.000Z,2.90
2019-03-21T02:11:56.564Z,3.00
2019-03-21T02:14:30.995Z,3.00
2019-03-21T02:17:04.739Z,3.00
2019-03-21T02:19:39.219Z,3.00
2019-03-21T02:22:13.506Z,3.00
2019-03-21T02:24:47.178Z,3.10
2019-03-21T02:27:21.667Z,3.10
2019-03-21T02:29:55.328Z,3.00
2019-03-21T02:32:28.861Z,3.10
2019-03-21T02:35:02.950Z,3.10
2019-03-21T02:37:36.673Z,3.10
2019-03-21T02:40:10.648Z,3.00
2019-03-21T02:42:44.255Z,2.90
2019-03-21T02:45:18.077Z,2.90
2019-03-21T02:47:51.904Z,2.80
2019-03-21T02:50:34.987Z,2.80
2019-03-21T02:53:08.652Z,2.80
2019-03-21T02:55:42.318Z,2.70
2019-03-21T02:58:15.958Z,2.70
2019-03-21T03:00:49.618Z,2.70
2019-03-21T03:03:23.243Z,2.60
2019-03-21T03:05:56.993Z,2.60
2019-03-21T03:08:30.720Z,2.70
2019-03-21T03:11:10.937Z,2.70
2019-03-21T03:13:44.243Z,2.70
2019-03-21T03:16:17.903Z,2.70
2019-03-21T03:18:52.439Z,2.60
2019-03-21T03:21:26.089Z,2.60
2019-03-21T03:23:59.779Z,2.50
2019-03-21T03:26:33.492Z,2.50
2019-03-21T03:29:07.257Z,2.50
2019-03-21T03:31:41.695Z,2.40
2019-03-21T03:34:15.280Z,2.40
2019-03-21T03:36:49.090Z,2.30
2019-03-21T03:39:22.641Z,2.30
2019-03-21T03:41:57.145Z,2.40
2019-03-21T03:44:30.781Z,2.30
2019-03-21T03:47:05.299Z,2.40
2019-03-21T03:49:38.964Z,2.40
2019-03-21T03:52:13.329Z,2.40
2019-03-21T03:54:47.436Z,2.30
2019-03-21T03:57:21.258Z,2.30
2019-03-21T03:59:55.699Z,2.30
2019-03-21T04:02:31.661Z,2.30
2019-03-21T04:05:05.527Z,2.40
2019-03-21T04:07:39.307Z,2.30
2019-03-21T04:10:14.781Z,2.30
2019-03-21T04:12:48.378Z,2.20
2019-03-21T04:15:22.244Z,2.20
2019-03-21T04:17:55.990Z,2.20
2019-03-21T04:20:34.226Z,2.10
2019-03-21T04:23:08.619Z,2.10
2019-03-21T04:25:42.316Z,2.10
2019-03-21T04:28:15.975Z,2.10
2019-03-21T04:30:50.625Z,2.20
2019-03-21T04:33:24.396Z,2.20
2019-03-21T04:35:58.175Z,2.10
2019-03-21T04:38:31.862Z,2.10
2019-03-21T04:41:06.244Z,2.00
2019-03-21T04:43:39.936Z,2.10
2019-03-21T04:46:13.554Z,2.10
2019-03-21T04:48:47.117Z,2.00
2019-03-21T04:51:20.736Z,2.00
2019-03-21T04:53:54.381Z,2.10
2019-03-21T04:56:27.970Z,2.10
2019-03-21T04:59:01.668Z,2.10
2019-03-21T05:01:35.462Z,2.00
2019-03-21T05:04:09.350Z,2.00
2019-03-21T05:06:42.970Z,2.00
2019-03-21T05:09:17.424Z,2.10
2019-03-21T05:11:51.776Z,2.00
2019-03-21T05:14:25.532Z,1.90
2019-03-21T05:17:00.310Z,2.00
2019-03-21T05:19:34.063Z,2.00
2019-03-21T05:22:07.830Z,1.90
2019-03-21T05:24:41.461Z,1.90
2019-03-21T05:27:15.224Z,1.90
2019-03-21T05:29:48.782Z,1.90
2019-03-21T05:32:22.477Z,1.90
2019-03-21T05:34:56.017Z,1.90
2019-03-21T05:37:29.733Z,1.90
2019-03-21T05:40:08.557Z,2.00
2019-03-21T05:42:42.246Z,2.00
2019-03-21T05:45:15.981Z,2.10
2019-03-21T05:47:49.575Z,2.20
2019-03-21T05:50:23.316Z,2.30
2019-03-21T05:52:57.092Z,2.40
2019-03-21T05:55:30.638Z,2.40
2019-03-21T05:58:04.268Z,2.40
2019-03-21T06:00:39.682Z,2.40
2019-03-21T06:03:14.174Z,2.40
2019-03-21T06:05:48.168Z,2.30
2019-03-21T06:08:22.626Z,2.20
2019-03-21T06:10:57.205Z,2.30
2019-03-21T06:13:31.007Z,2.30
2019-03-21T06:16:06.702Z,2.40
2019-03-21T06:18:57.025Z,2.40
2019-03-21T06:21:36.290Z,2.50
2019-03-21T06:24:31.502Z,2.70
2019-03-21T06:27:14.402Z,3.50
2019-03-21T06:29:43.814Z,3.90
2019-03-21T06:32:17.558Z,3.90
2019-03-21T06:34:51.145Z,4.00
2019-03-21T06:37:28.450Z,4.20
2019-03-21T06:39:59.598Z,4.10
2019-03-21T06:42:33.155Z,3.80
2019-03-21T06:45:06.872Z,3.60
2019-03-21T06:47:40.705Z,3.50
2019-03-21T06:50:14.465Z,3.50
2019-03-21T06:52:48.315Z,3.50
2019-03-21T06:55:22.068Z,3.50
2019-03-21T06:57:55.972Z,3.70
2019-03-21T07:00:30.489Z,4.10
2019-03-21T07:03:04.338Z,4.00
2019-03-21T07:05:38.611Z,4.20
2019-03-21T07:08:12.283Z,4.30
2019-03-21T07:10:46.024Z,4.40
2019-03-21T07:13:19.839Z,4.50
2019-03-21T07:15:53.397Z,4.50
2019-03-21T07:18:27.071Z,4.50
2019-03-21T07:21:01.482Z,4.50
2019-03-21T07:23:35.174Z,4.60
2019-03-21T07:26:08.815Z,4.70
2019-03-21T07:28:42.614Z,4.80
2019-03-21T07:31:16.395Z,5.00
2019-03-21T07:33:50.027Z,5.10
2019-03-21T07:36:26.135Z,5.30
2019-03-21T07:38:57.576Z,5.30
2019-03-21T07:41:32.079Z,5.50
2019-03-21T07:44:05.659Z,5.50
2019-03-21T07:46:39.215Z,5.50
2019-03-21T07:49:13.558Z,5.60
2019-03-21T07:51:47.349Z,5.80
2019-03-21T07:54:21.104Z,5.90
2019-03-21T07:56:54.759Z,6.00
2019-03-21T07:59:28.478Z,6.10
2019-03-21T08:02:02.094Z,6.20
2019-03-21T08:04:35.630Z,6.40
2019-03-21T08:07:09.338Z,6.50
2019-03-21T08:09:42.878Z,6.70
2019-03-21T08:12:16.553Z,6.90
2019-03-21T08:14:50.393Z,7.10
2019-03-21T08:17:24.196Z,7.50
2019-03-21T08:19:57.731Z,7.60
2019-03-21T08:22:31.453Z,7.80
2019-03-21T08:25:07.052Z,8.50
2019-03-21T08:27:40.713Z,9.90
2019-03-21T08:33:06.399Z,12.80
2019-03-21T08:35:40.908Z,13.90
2019-03-21T08:38:14.447Z,13.80
2019-03-21T08:40:48.024Z,14.70
2019-03-21T08:43:21.732Z,15.70
2019-03-21T08:45:56.296Z,16.10
2019-03-21T08:48:29.999Z,16.10
2019-03-21T08:51:08.497Z,17.40
2019-03-21T08:53:38.029Z,17.30
2019-03-21T08:56:11.698Z,17.80
2019-03-21T08:58:46.023Z,18.00
2019-03-21T09:01:19.832Z,18.00
2019-03-21T09:03:54.453Z,18.20
2019-03-21T09:06:28.032Z,18.20
2019-03-21T09:09:01.601Z,18.40
2019-03-21T09:11:35.279Z,18.40
2019-03-21T09:14:09.004Z,18.00
2019-03-21T09:16:42.711Z,18.00
2019-03-21T09:19:16.245Z,18.20
2019-03-21T09:21:49.997Z,18.00
2019-03-21T09:24:23.786Z,18.40
2019-03-21T09:26:57.593Z,18.30
2019-03-21T09:29:31.261Z,18.60
2019-03-21T09:32:05.061Z,18.80
2019-03-21T09:34:38.723Z,18.80
2019-03-21T09:37:12.300Z,19.00
2019-03-21T09:39:45.915Z,19.10
2019-03-21T09:42:19.655Z,19.00
2019-03-21T09:44:53.326Z,19.10
2019-03-21T09:47:27.588Z,19.40
2019-03-21T09:50:01.265Z,19.10
2019-03-21T09:52:34.856Z,19.80
2019-03-21T09:55:08.461Z,20.40
2019-03-21T09:57:42.145Z,20.80
2019-03-21T10:00:15.806Z,21.60
2019-03-21T10:02:49.543Z,21.40
2019-03-21T10:05:23.334Z,21.50
2019-03-21T10:07:59.430Z,21.50
2019-03-21T10:10:31.287Z,21.50
2019-03-21T10:13:05.099Z,20.40
2019-03-21T10:15:38.827Z,21.20
2019-03-21T10:18:12.386Z,21.50
2019-03-21T10:20:45.977Z,22.10
2019-03-21T10:23:21.423Z,22.70
2019-03-21T10:25:56.011Z,23.00
2019-03-21T10:28:29.797Z,23.00
2019-03-21T10:31:03.386Z,24.20
2019-03-21T10:33:37.060Z,23.70
2019-03-21T10:36:10.718Z,24.10
2019-03-21T10:38:44.580Z,23.90
2019-03-21T10:41:18.266Z,24.80
2019-03-21T10:43:51.833Z,26.10
2019-03-21T10:46:25.522Z,25.90
2019-03-21T10:48:59.217Z,25.60
2019-03-21T10:51:32.872Z,24.40
2019-03-21T10:54:06.866Z,25.00
2019-03-21T10:56:41.307Z,25.60
2019-03-21T10:59:15.047Z,25.60
2019-03-21T11:01:48.939Z,25.90
2019-03-21T11:04:22.619Z,25.80
2019-03-21T11:06:59.664Z,25.30
2019-03-21T11:09:33.363Z,26.20
2019-03-21T11:12:07.986Z,27.90
2019-03-21T11:14:41.780Z,27.80
2019-03-21T11:17:15.540Z,27.40
2019-03-21T11:31:49.569Z,29.10
2019-03-21T11:34:24.079Z,29.60
2019-03-21T11:36:58.676Z,30.20
2019-03-21T11:39:32.312Z,30.10
2019-03-21T11:42:05.960Z,31.70
2019-03-21T11:44:39.795Z,32.10
2019-03-21T11:47:16.315Z,31.70
2019-03-21T11:49:50.101Z,29.60
2019-03-21T11:52:24.525Z,22.50
2019-03-21T11:54:58.150Z,22.40
2019-03-21T11:57:31.752Z,20.10
2019-03-21T12:00:05.407Z,18.10
2019-03-21T12:02:39.165Z,17.10
2019-03-21T12:05:12.985Z,16.50
2019-03-21T12:07:46.790Z,16.30
2019-03-21T12:10:20.634Z,16.40
2019-03-21T12:12:54.369Z,16.30
2019-03-21T12:15:27.952Z,16.30
2019-03-21T12:18:01.740Z,16.30
2019-03-21T12:20:35.504Z,16.10
2019-03-21T12:23:09.378Z,16.10
2019-03-21T12:25:43.891Z,15.90
2019-03-21T12:28:17.842Z,15.90
2019-03-21T12:30:51.616Z,16.00
2019-03-21T12:33:26.036Z,16.00
2019-03-21T12:35:59.708Z,15.90
2019-03-21T12:38:33.278Z,15.80
2019-03-21T12:41:08.021Z,16.00
2019-03-21T12:43:41.655Z,15.90
2019-03-21T12:46:15.931Z,16.10
2019-03-21T12:48:49.862Z,16.00
2019-03-21T12:51:23.525Z,16.00
2019-03-21T12:53:57.331Z,16.00
2019-03-21T12:56:31.100Z,16.00
2019-03-21T12:59:04.851Z,15.90
2019-03-21T13:01:38.707Z,16.00
2019-03-21T13:04:12.454Z,16.00
2019-03-21T13:06:46.013Z,16.00
2019-03-21T13:09:20.369Z,16.00
2019-03-21T13:11:54.021Z,15.90
2019-03-21T13:14:27.633Z,16.00
2019-03-21T13:17:01.358Z,16.00
2019-03-21T13:19:35.158Z,15.90
2019-03-21T13:22:08.882Z,15.80
2019-03-21T13:24:42.637Z,15.90
2019-03-21T13:27:16.233Z,15.90
2019-03-21T13:29:49.796Z,15.90
2019-03-21T13:32:23.347Z,16.00
2019-03-21T13:34:59.714Z,16.00
2019-03-21T13:37:32.347Z,16.00
2019-03-21T13:40:05.792Z,15.90
2019-03-21T13:42:39.547Z,15.80
2019-03-21T13:45:13.175Z,15.70
2019-03-21T13:47:46.937Z,15.80
2019-03-21T13:50:20.683Z,15.90
2019-03-21T13:53:04.349Z,15.90
2019-03-21T13:55:28.007Z,16.00
2019-03-21T13:58:01.760Z,16.10
2019-03-21T14:00:35.503Z,16.10
2019-03-21T14:03:09.114Z,16.20
2019-03-21T14:05:43.020Z,16.20
2019-03-21T14:08:16.764Z,16.20
2019-03-21T14:10:50.484Z,16.10
2019-03-21T14:13:25.003Z,16.20
2019-03-21T14:15:58.538Z,16.20
2019-03-21T14:18:32.273Z,16.20
2019-03-21T14:21:05.929Z,16.30
2019-03-21T14:23:43.463Z,16.20
2019-03-21T14:26:13.155Z,16.10
2019-03-21T14:28:46.815Z,16.20
2019-03-21T14:31:20.887Z,16.20
2019-03-21T14:33:54.461Z,16.20
2019-03-21T14:36:28.215Z,16.20
2019-03-21T14:39:01.855Z,16.30
2019-03-21T14:41:35.510Z,16.30
2019-03-21T14:44:09.075Z,16.40
2019-03-21T14:46:43.386Z,16.40
2019-03-21T14:49:18.300Z,16.30
2019-03-21T14:51:51.948Z,16.30
2019-03-21T14:54:25.538Z,16.30
2019-03-21T14:56:59.330Z,16.30
2019-03-21T14:59:32.931Z,16.30
2019-03-21T15:02:06.720Z,16.40
2019-03-21T15:04:40.293Z,16.40
2019-03-21T15:07:14.795Z,16.40
2019-03-21T15:09:49.425Z,16.40
2019-03-21T15:12:23.128Z,16.30
2019-03-21T15:14:56.870Z,16.30
2019-03-21T15:17:30.635Z,16.30
2019-03-21T15:20:05.488Z,16.30
2019-03-21T15:22:39.155Z,16.30
2019-03-21T15:25:12.830Z,16.40
2019-03-21T15:27:46.349Z,16.40
2019-03-21T15:30:20.117Z,16.40
2019-03-21T15:32:53.790Z,16.40
2019-03-21T15:35:27.443Z,16.40
2019-03-21T15:38:01.800Z,16.30
2019-03-21T15:40:36.124Z,16.30
2019-03-21T15:43:09.846Z,16.20
2019-03-21T15:45:43.565Z,16.10
2019-03-21T15:48:17.127Z,16.10
2019-03-21T15:50:50.965Z,16.10
2019-03-21T15:53:25.781Z,16.10
2019-03-21T15:55:59.478Z,16.00
2019-03-21T15:58:33.188Z,16.00
2019-03-21T16:01:06.941Z,15.90
2019-03-21T16:03:40.535Z,15.90
2019-03-21T16:06:14.268Z,15.90
2019-03-21T16:08:48.602Z,15.80
2019-03-21T16:11:22.997Z,15.90
2019-03-21T16:13:56.667Z,15.80
2019-03-21T16:16:31.154Z,15.80
2019-03-21T16:19:04.843Z,15.70
2019-03-21T16:21:38.452Z,15.70
2019-03-21T16:24:12.240Z,15.70
2019-03-21T16:26:46.027Z,15.70
2019-03-21T16:29:19.835Z,15.60
2019-03-21T16:31:53.443Z,15.60
2019-03-21T16:34:27.074Z,15.50
2019-03-21T16:37:00.861Z,15.50
2019-03-21T16:39:34.463Z,15.40
2019-03-21T16:42:08.076Z,15.40
2019-03-21T16:44:41.792Z,15.40
2019-03-21T16:47:15.507Z,15.30
2019-03-21T16:49:49.918Z,15.30
2019-03-21T16:52:23.691Z,15.30
2019-03-21T16:54:58.231Z,15.30
2019-03-21T16:57:32.817Z,15.30
2019-03-21T17:00:08.004Z,15.10
2019-03-21T17:02:41.675Z,15.10
2019-03-21T17:05:16.160Z,15.00
2019-03-21T17:07:49.830Z,15.00
2019-03-21T17:10:23.591Z,15.00
2019-03-21T17:12:57.329Z,14.90
2019-03-21T17:15:30.863Z,14.80
2019-03-21T17:18:04.508Z,14.80
2019-03-21T17:20:38.037Z,14.70
2019-03-21T17:23:11.623Z,14.70
2019-03-21T17:25:45.246Z,14.60
2019-03-21T17:28:18.928Z,14.50
2019-03-21T17:30:53.453Z,14.50
2019-03-21T17:33:27.131Z,14.50
2019-03-21T17:36:01.493Z,14.30
2019-03-21T17:38:35.335Z,14.30
2019-03-21T17:41:08.954Z,14.20
2019-03-21T17:43:42.516Z,14.20
2019-03-21T17:46:16.334Z,14.10
2019-03-21T17:48:50.640Z,13.90
2019-03-21T17:51:24.267Z,13.90
2019-03-21T17:53:57.887Z,13.80
2019-03-21T17:56:31.716Z,13.70
2019-03-21T17:59:05.360Z,13.60
2019-03-21T18:01:39.878Z,13.50
2019-03-21T18:04:13.547Z,13.40
2019-03-21T18:06:48.155Z,13.30
2019-03-21T18:09:21.909Z,13.20
2019-03-21T18:11:55.611Z,13.00
2019-03-21T18:14:29.421Z,12.90
2019-03-21T18:17:03.095Z,12.80
2019-03-21T18:19:36.721Z,12.70
2019-03-21T18:22:10.308Z,12.60
2019-03-21T18:24:53.757Z,12.40
2019-03-21T18:27:18.864Z,12.30
2019-03-21T18:29:52.557Z,12.30
2019-03-21T18:32:26.230Z,12.20
2019-03-21T18:34:59.865Z,12.10
2019-03-21T18:37:34.421Z,12.00
2019-03-21T18:40:08.024Z,12.00
2019-03-21T18:42:41.824Z,11.90
2019-03-21T18:45:15.637Z,11.80
2019-03-21T18:47:49.310Z,11.70
2019-03-21T18:50:22.968Z,11.60
2019-03-21T18:52:56.592Z,11.50
2019-03-21T18:55:30.152Z,11.50
2019-03-21T18:58:04.515Z,11.40
2019-03-21T19:00:38.148Z,11.30
2019-03-21T19:05:35.605Z,11.20
2019-03-21T19:08:09.679Z,11.10
2019-03-21T19:10:43.364Z,11.20
2019-03-21T19:13:17.827Z,11.10
2019-03-21T19:15:51.574Z,11.10
2019-03-21T19:18:25.343Z,11.10
2019-03-21T19:20:58.943Z,11.00
2019-03-21T19:23:32.559Z,11.00
2019-03-21T19:26:06.834Z,10.80
2019-03-21T19:28:40.590Z,10.80
2019-03-21T19:31:14.215Z,10.70
2019-03-21T19:33:47.966Z,10.60
2019-03-21T19:36:22.371Z,10.60
2019-03-21T19:38:56.010Z,10.60
2019-03-21T19:41:29.698Z,10.50
2019-03-21T19:44:03.324Z,10.40
2019-03-21T19:46:36.912Z,10.40
2019-03-21T19:49:11.335Z,10.30
2019-03-21T19:51:45.051Z,10.30
2019-03-21T19:54:19.533Z,10.30
2019-03-21T19:56:54.074Z,10.30
2019-03-21T19:59:27.764Z,10.30
2019-03-21T20:02:01.535Z,10.30
2019-03-21T20:04:35.089Z,10.30
2019-03-21T20:07:08.691Z,10.30
2019-03-21T20:09:43.203Z,10.20
2019-03-21T20:12:16.906Z,10.20
2019-03-21T20:14:50.772Z,10.20
2019-03-21T20:17:24.580Z,10.20
2019-03-21T20:19:58.160Z,10.20
2019-03-21T20:22:31.737Z,10.20
2019-03-21T20:25:05.368Z,10.10
2019-03-21T20:27:39.087Z,10.10
2019-03-21T20:30:21.444Z,9.90
2019-03-21T20:32:55.987Z,9.80
2019-03-21T20:35:30.353Z,9.80
2019-03-21T20:38:03.891Z,9.70
2019-03-21T20:40:39.202Z,9.70
2019-03-21T20:43:11.161Z,9.70
2019-03-21T20:45:44.931Z,9.60
2019-03-21T20:48:18.760Z,9.40
2019-03-21T20:50:52.459Z,9.30
2019-03-21T20:53:26.234Z,9.30
2019-03-21T20:55:59.868Z,9.20
2019-03-21T20:58:33.628Z,9.20
2019-03-21T21:01:07.272Z,9.10
2019-03-21T21:03:40.967Z,9.10
2019-03-21T21:06:15.403Z,9.10
2019-03-21T21:08:49.020Z,9.10
2019-03-21T21:11:22.828Z,9.20
2019-03-21T21:13:56.362Z,9.20
2019-03-21T21:16:29.990Z,9.10
2019-03-21T21:19:04.458Z,8.80
2019-03-21T21:21:37.989Z,8.80
2019-03-21T21:24:11.808Z,8.70
2019-03-21T21:26:45.484Z,8.70
2019-03-21T21:29:19.196Z,8.60
2019-03-21T21:31:53.484Z,8.50
2019-03-21T21:34:27.155Z,8.50
2019-03-21T21:37:01.635Z,8.40
2019-03-21T21:39:35.348Z,8.40
2019-03-21T21:42:09.083Z,8.30
2019-03-21T21:44:42.718Z,8.30
2019-03-21T21:47:16.268Z,8.30
2019-03-21T21:49:49.936Z,8.30
2019-03-21T21:52:23.674Z,8.30
2019-03-21T21:54:57.483Z,8.20
2019-03-21T21:57:31.050Z,8.10
2019-03-21T22:00:09.823Z,7.90
2019-03-21T22:02:43.439Z,8.00
2019-03-21T22:05:17.035Z,7.90
2019-03-21T22:07:51.609Z,7.80
2019-03-21T22:10:25.274Z,7.70
2019-03-21T22:12:58.855Z,7.80
2019-03-21T22:15:33.212Z,7.70
2019-03-21T22:18:07.592Z,7.60
2019-03-21T22:20:43.016Z,7.50
2019-03-21T22:23:16.574Z,7.50
2019-03-21T22:25:50.173Z,7.50
2019-03-21T22:28:23.769Z,7.50
2019-03-21T22:30:57.579Z,7.60
2019-03-21T22:33:31.246Z,7.60
2019-03-21T22:36:06.548Z,7.60
2019-03-21T22:38:38.515Z,7.60
2019-03-21T22:41:12.188Z,7.60
2019-03-21T22:43:46.032Z,7.50
2019-03-21T22:46:19.761Z,7.50
2019-03-21T22:48:53.346Z,7.40
2019-03-21T22:51:27.040Z,7.30
2019-03-21T22:54:00.636Z,7.20
2019-03-21T22:56:41.104Z,7.20
2019-03-21T22:59:08.152Z,7.10
2019-03-21T23:01:42.980Z,7.10
2019-03-21T23:04:17.329Z,7.10
2019-03-21T23:06:51.614Z,7.10
2019-03-21T23:09:26.011Z,7.00
2019-03-21T23:11:59.608Z,7.00
2019-03-21T23:14:34.231Z,7.00
2019-03-21T23:17:08.564Z,6.90
2019-03-21T23:19:42.929Z,7.00
2019-03-21T23:22:16.632Z,6.90
2019-03-21T23:24:50.271Z,7.00
2019-03-21T23:27:23.983Z,6.90
2019-03-21T23:29:57.580Z,6.80
2019-03-21T23:32:31.176Z,6.70
2019-03-21T23:35:05.697Z,6.60
2019-03-21T23:37:40.120Z,6.50
2019-03-21T23:40:14.628Z,6.50
2019-03-21T23:42:48.448Z,6.50
2019-03-21T23:45:22.049Z,6.50
2019-03-21T23:47:55.582Z,6.50
2019-03-21T23:50:29.282Z,6.40
2019-03-21T23:53:02.924Z,6.40
2019-03-21T23:55:36.776Z,6.40
2019-03-21T23:58:10.450Z,6.40
